Portada
METAR-TAF:

METAR-TAF

Aeropuertos :

Ibiza, España

Aeropuerto de Ibiza

latitud: 38-52N, longitud: 001-23E, altitud: 7 m

Observación

El informe se hizo hace 20 minutos, a las 08:00 UTC
Viento 3 kt del noroeste, variando entre suroeste y norte-noreste
Temperatura 16°C
Humedad 77%
Presión 1026 hPa
Visibilidad 10 km o más
Escasas nubes a una altura de 1700 ft

METAR: LEIB 280800Z 32003KT 230V030 9999 FEW017 16/12 Q1026 NOSIG

Hora: 10:20 (08:20 UTC)

Pronóstico

El informe se hizo hace 6 horas y 20 minutos, a las 02:00 UTC
Pronóstico válido del 28 a las 03 UTC al 29 a las 03 UTC
Viento 4 kt con dirección variable
Visibilidad 10 km o más
Escasas nubes a una altura de 2000 ft
Temporalmente
del 28 a las 07 UTC al 28 a las 18 UTC
Viento 9 kt del norte

TAF: LEIB 280200Z 2803/2903 VRB04KT 9999 FEW020 TX18/2813Z TN08/2806Z TEMPO 2807/2818 01009KT

Observaciones y pronósticos meteorológicos de más de 4000 aeropuertos (mensajes METAR y TAF).

Los puntos amarillos y rojos representan las estaciones disponibles.

Ponga el ratón en el punto deseado para ver el nombre de la estación.

Haga clic para ver las observaciones y los pronósticos meteorológicos.

Para cambiar el mapa : haga clic en los botones verdes con una cruz de color negro para hacer un zoom, en el botón verde con un guión para alejar o en las flechas verdes para mapas adyacentes.


METAR-TAF: